Time;durP1;ratioP1;P1;durP2;ratioP2;P2;SDS_P1;SDS_P2;PMS_P1;PMS_P2;Temp;Humidity;BMP_temperature;BMP_pressure;BME280_temperature;BME280_humidity;BME280_pressure;Samples;Min_cycle;Max_cycle;Signal;HPM_P1;HPM_P2
2022/09/20 00:01:13;;;;;;;;;;;15.10;99.90;;;;;;5045505;28;21067;-62
2022/09/20 00:03:43;;;;;;;;;;;15.00;99.90;;;;;;5058926;28;19923;-62
2022/09/20 00:06:10;;;;;;;;;;;15.00;99.90;;;;;;5062349;28;19948;-63
2022/09/20 00:08:35;;;;;;;;;;;15.10;99.90;;;;;;5061606;28;19916;-63
2022/09/20 00:11:06;;;;;;;;;;;15.10;99.90;;;;;;5060315;28;19924;-63
2022/09/20 00:13:32;;;;;;;;;;;15.10;99.90;;;;;;5045452;28;19913;-63
2022/09/20 00:15:58;;;;;;;;;;;15.00;99.90;;;;;;5046097;28;21512;-63
2022/09/20 00:18:23;;;;;;;;;;;15.10;99.90;;;;;;5064265;28;19971;-64
2022/09/20 00:20:49;;;;;;;;;;;15.10;99.90;;;;;;5062794;28;19956;-62
2022/09/20 00:23:15;;;;;;;;;;;15.10;99.90;;;;;;5060655;28;20399;-63
2022/09/20 00:25:41;;;;;;;;;;;15.10;99.90;;;;;;5060736;28;19921;-61
2022/09/20 00:28:07;;;;;;;;;;;15.10;99.90;;;;;;5059503;28;20039;-63
2022/09/20 00:30:33;;;;;;;;;;;15.10;99.90;;;;;;5064772;28;20014;-61
2022/09/20 00:32:58;;;;;;;;;;;15.00;99.90;;;;;;5065567;28;19958;-61
2022/09/20 00:35:24;;;;;;;;;;;15.00;99.90;;;;;;5057245;28;19917;-62
2022/09/20 00:37:49;;;;;;;;;;;15.00;99.90;;;;;;5062414;28;19925;-62
2022/09/20 00:40:16;;;;;;;;;;;15.10;99.90;;;;;;5062916;28;19943;-63
2022/09/20 00:42:41;;;;;;;;;;;15.00;99.90;;;;;;5059269;28;20011;-62
2022/09/20 00:45:13;;;;;;;;;;;15.00;99.90;;;;;;5043660;28;19999;-63
2022/09/20 00:47:41;;;;;;;;;;;15.00;99.90;;;;;;5058049;28;19959;-61
2022/09/20 00:50:16;;;;;;;;;;;15.00;99.90;;;;;;5061292;28;19947;-61
2022/09/20 00:52:44;;;;;;;;;;;15.10;99.90;;;;;;5063514;28;19912;-62
2022/09/20 00:55:10;;;;;;;;;;;15.10;99.90;;;;;;5061623;28;19927;-62
2022/09/20 00:57:37;;;;;;;;;;;15.10;99.90;;;;;;5047538;28;19916;-63
2022/09/20 01:00:05;;;;;;;;;;;15.10;99.90;;;;;;5054397;28;19977;-62
2022/09/20 01:02:31;;;;;;;;;;;15.10;99.90;;;;;;5053219;28;19967;-63
2022/09/20 01:04:57;;;;;;;;;;;15.10;99.90;;;;;;5062045;28;19973;-62
2022/09/20 01:07:23;;;;;;;;;;;15.10;99.90;;;;;;5061197;28;20883;-63
2022/09/20 01:09:49;;;;;;;;;;;15.10;99.90;;;;;;5060513;28;19920;-63
2022/09/20 01:12:19;;;;;;;;;;;15.10;99.90;;;;;;5063833;28;19912;-62
2022/09/20 01:14:46;;;;;;;;;;;15.10;99.90;;;;;;5058857;28;19920;-62
2022/09/20 01:17:12;;;;;;;;;;;15.00;99.90;;;;;;5062494;28;19931;-62
2022/09/20 01:19:42;;;;;;;;;;;15.00;99.90;;;;;;5065412;28;20304;-61
2022/09/20 01:22:15;;;;;;;;;;;15.00;99.90;;;;;;5064296;28;20213;-63
2022/09/20 01:24:54;;;;;;;;;;;15.00;99.90;;;;;;5059816;28;20255;-63
2022/09/20 01:27:20;;;;;;;;;;;15.00;99.90;;;;;;5065916;28;19919;-63
2022/09/20 01:29:58;;;;;;;;;;;15.00;99.90;;;;;;5065354;28;19917;-63
2022/09/20 01:32:28;;;;;;;;;;;15.00;99.90;;;;;;5068306;28;19982;-63
2022/09/20 01:34:58;;;;;;;;;;;15.00;99.90;;;;;;5064563;28;19920;-64
2022/09/20 01:37:25;;;;;;;;;;;15.00;99.90;;;;;;5057583;28;20001;-64
2022/09/20 01:39:54;;;;;;;;;;;15.00;99.90;;;;;;5057752;28;19916;-63
2022/09/20 01:42:24;;;;;;;;;;;15.00;99.90;;;;;;5055517;28;19981;-63
2022/09/20 01:45:22;;;;;;;;;;;15.00;99.90;;;;;;5058981;28;19912;-62
2022/09/20 01:47:57;;;;;;;;;;;15.00;99.90;;;;;;5019347;28;19965;-62
2022/09/20 01:50:45;;;;;;;;;;;15.00;99.90;;;;;;5060356;28;20021;-62
2022/09/20 01:53:16;;;;;;;;;;;15.00;99.90;;;;;;5031090;28;19921;-62
2022/09/20 01:56:00;;;;;;;;;;;15.00;99.90;;;;;;5063277;28;19917;-63
2022/09/20 01:58:28;;;;;;;;;;;15.00;99.90;;;;;;5064738;28;20370;-63
2022/09/20 02:01:13;;;;;;;;;;;15.00;99.90;;;;;;5054928;28;20199;-63
2022/09/20 02:04:05;;;;;;;;;;;15.00;99.90;;;;;;5055124;28;20371;-63
2022/09/20 02:06:49;;;;;;;;;;;15.10;99.90;;;;;;5059191;28;19912;-63
2022/09/20 02:09:25;;;;;;;;;;;14.90;99.90;;;;;;5062395;28;19977;-63
2022/09/20 02:11:57;;;;;;;;;;;14.90;99.90;;;;;;5046249;28;19935;-63
2022/09/20 02:14:25;;;;;;;;;;;14.90;99.90;;;;;;5061342;28;19953;-63
2022/09/20 02:17:17;;;;;;;;;;;14.90;99.90;;;;;;5055027;28;19920;-63
2022/09/20 02:19:52;;;;;;;;;;;14.90;99.90;;;;;;5057365;28;19920;-62
2022/09/20 02:22:20;;;;;;;;;;;15.00;99.90;;;;;;5060196;28;19913;-63
2022/09/20 02:25:04;;;;;;;;;;;15.00;99.90;;;;;;5063500;28;19920;-63
2022/09/20 02:27:29;;;;;;;;;;;15.00;99.90;;;;;;5061979;28;19912;-63
2022/09/20 02:30:06;;;;;;;;;;;15.00;99.90;;;;;;5061963;28;20330;-62
2022/09/20 02:32:44;;;;;;;;;;;15.00;99.90;;;;;;5059949;28;19951;-62
2022/09/20 02:35:24;;;;;;;;;;;15.00;99.90;;;;;;5061181;28;19951;-63
2022/09/20 02:38:09;;;;;;;;;;;14.90;99.90;;;;;;5061848;28;20295;-62
2022/09/20 02:40:54;;;;;;;;;;;14.90;99.90;;;;;;5060902;28;19920;-62
2022/09/20 02:43:26;;;;;;;;;;;14.80;99.90;;;;;;5032475;28;19931;-63
2022/09/20 02:46:02;;;;;;;;;;;14.80;99.90;;;;;;5061445;28;19920;-64
2022/09/20 02:48:33;;;;;;;;;;;14.60;99.90;;;;;;5066025;28;19921;-63
2022/09/20 02:51:04;;;;;;;;;;;14.60;99.90;;;;;;5062216;28;20391;-63
2022/09/20 02:53:48;;;;;;;;;;;14.70;99.90;;;;;;5061543;28;19913;-63
2022/09/20 02:56:21;;;;;;;;;;;14.60;99.90;;;;;;5063379;28;19924;-63
2022/09/20 02:58:52;;;;;;;;;;;14.50;99.90;;;;;;5063155;28;19913;-63
2022/09/20 03:01:20;;;;;;;;;;;14.50;99.90;;;;;;5060726;28;19920;-62
2022/09/20 03:03:52;;;;;;;;;;;14.50;99.90;;;;;;5061724;28;19963;-62
2022/09/20 03:06:23;;;;;;;;;;;14.40;99.90;;;;;;5055875;28;20041;-63
2022/09/20 03:08:49;;;;;;;;;;;14.40;99.90;;;;;;5057618;28;19913;-63
2022/09/20 03:11:26;;;;;;;;;;;14.30;99.90;;;;;;5060159;28;19920;-62
2022/09/20 03:14:24;;;;;;;;;;;14.30;99.90;;;;;;5061432;28;20213;-62
2022/09/20 03:16:50;;;;;;;;;;;14.40;99.90;;;;;;5017851;28;20286;-63
2022/09/20 03:19:18;;;;;;;;;;;14.30;99.90;;;;;;5060757;28;21348;-62
2022/09/20 03:21:46;;;;;;;;;;;14.20;99.90;;;;;;5061588;28;20286;-62
2022/09/20 03:24:33;;;;;;;;;;;14.10;99.90;;;;;;5057699;28;19931;-63
2022/09/20 03:27:11;;;;;;;;;;;14.10;99.90;;;;;;5064415;28;19966;-63
2022/09/20 03:29:36;;;;;;;;;;;14.00;99.90;;;;;;5056017;28;19912;-63
2022/09/20 03:32:13;;;;;;;;;;;14.10;99.90;;;;;;5063079;28;20275;-63
2022/09/20 03:34:47;;;;;;;;;;;14.10;99.90;;;;;;5059488;28;19981;-62
2022/09/20 03:37:27;;;;;;;;;;;14.00;99.90;;;;;;5059255;28;20272;-63
2022/09/20 03:40:12;;;;;;;;;;;14.00;99.90;;;;;;5055074;28;20555;-63
2022/09/20 03:42:42;;;;;;;;;;;13.90;99.90;;;;;;5062434;28;19931;-62
2022/09/20 03:45:26;;;;;;;;;;;13.80;99.90;;;;;;5060004;28;20672;-63
2022/09/20 03:47:57;;;;;;;;;;;13.70;99.90;;;;;;5061361;28;20605;-63
2022/09/20 03:50:41;;;;;;;;;;;13.60;99.90;;;;;;5062940;28;19916;-63
2022/09/20 03:53:25;;;;;;;;;;;13.40;99.90;;;;;;5062717;28;19927;-64
2022/09/20 03:56:03;;;;;;;;;;;13.30;99.90;;;;;;5062714;28;19917;-63
2022/09/20 03:58:35;;;;;;;;;;;13.30;99.90;;;;;;5061360;28;20399;-63
2022/09/20 04:01:15;;;;;;;;;;;13.20;99.90;;;;;;5054446;28;20321;-63
2022/09/20 04:03:41;;;;;;;;;;;13.10;99.90;;;;;;5061432;28;19923;-62
2022/09/20 04:06:16;;;;;;;;;;;13.00;99.90;;;;;;5060088;28;19919;-63
2022/09/20 04:08:48;;;;;;;;;;;13.00;99.90;;;;;;5058928;28;20312;-63
2022/09/20 04:11:34;;;;;;;;;;;12.90;99.90;;;;;;5059626;28;19964;-62
2022/09/20 04:14:05;;;;;;;;;;;12.80;99.90;;;;;;5056782;28;20427;-63
2022/09/20 04:16:37;;;;;;;;;;;12.70;99.90;;;;;;5057712;28;20367;-63
2022/09/20 04:19:18;;;;;;;;;;;12.70;99.90;;;;;;5057135;28;19925;-63
2022/09/20 04:21:54;;;;;;;;;;;12.80;99.90;;;;;;5060367;28;20368;-63
2022/09/20 04:24:23;;;;;;;;;;;12.70;99.90;;;;;;5057485;28;19960;-63
2022/09/20 04:26:58;;;;;;;;;;;12.60;99.90;;;;;;5057359;28;19962;-62
2022/09/20 04:29:43;;;;;;;;;;;12.60;99.90;;;;;;5045714;28;20363;-63
2022/09/20 04:32:09;;;;;;;;;;;12.50;99.90;;;;;;5064740;28;19966;-63
2022/09/20 04:37:28;;;;;;;;;;;12.40;99.90;;;;;;5063089;28;19925;-62
2022/09/20 04:40:06;;;;;;;;;;;12.40;99.90;;;;;;5055197;28;21542;-62
2022/09/20 04:42:48;;;;;;;;;;;12.30;99.90;;;;;;5058519;28;19917;-62
2022/09/20 04:45:33;;;;;;;;;;;12.30;99.90;;;;;;5044566;28;19927;-62
2022/09/20 04:48:10;;;;;;;;;;;12.20;99.90;;;;;;5066991;28;19916;-62
2022/09/20 04:50:49;;;;;;;;;;;12.10;99.90;;;;;;5066888;28;19912;-62
2022/09/20 04:53:21;;;;;;;;;;;12.00;99.90;;;;;;5064066;28;20332;-62
2022/09/20 04:55:54;;;;;;;;;;;11.90;99.90;;;;;;5062751;28;21001;-62
2022/09/20 04:58:26;;;;;;;;;;;11.90;99.90;;;;;;5061153;28;20425;-62
2022/09/20 05:01:01;;;;;;;;;;;11.90;99.90;;;;;;5063277;28;19916;-62
2022/09/20 05:03:44;;;;;;;;;;;11.90;99.90;;;;;;5065369;28;19912;-62
2022/09/20 05:06:15;;;;;;;;;;;11.90;99.90;;;;;;5063258;28;19920;-62
2022/09/20 05:08:40;;;;;;;;;;;11.90;99.90;;;;;;5062438;28;20011;-62
2022/09/20 05:11:16;;;;;;;;;;;11.90;99.90;;;;;;5043784;28;19992;-63
2022/09/20 05:14:01;;;;;;;;;;;11.80;99.90;;;;;;5060040;28;20097;-63
2022/09/20 05:16:45;;;;;;;;;;;11.80;99.90;;;;;;5060521;28;20283;-63
2022/09/20 05:19:15;;;;;;;;;;;11.80;99.90;;;;;;5059778;28;19913;-62
2022/09/20 05:22:05;;;;;;;;;;;11.70;99.90;;;;;;5059787;28;19916;-62
2022/09/20 05:24:30;;;;;;;;;;;11.70;99.90;;;;;;5059816;28;20345;-62
2022/09/20 05:27:11;;;;;;;;;;;11.70;99.90;;;;;;5062952;28;19912;-63
2022/09/20 05:29:56;;;;;;;;;;;11.80;99.90;;;;;;5066783;28;19912;-62
2022/09/20 05:32:21;;;;;;;;;;;11.70;99.90;;;;;;5061773;28;19920;-62
2022/09/20 05:34:49;;;;;;;;;;;11.70;99.90;;;;;;5066053;28;19924;-62
2022/09/20 05:37:30;;;;;;;;;;;11.60;99.90;;;;;;5047711;28;19920;-63
2022/09/20 05:40:04;;;;;;;;;;;11.60;99.90;;;;;;5061260;28;20011;-62
2022/09/20 05:42:45;;;;;;;;;;;11.50;99.90;;;;;;5061498;28;20216;-64
2022/09/20 05:45:14;;;;;;;;;;;11.50;99.90;;;;;;5065969;28;19920;-62
2022/09/20 05:48:03;;;;;;;;;;;11.40;99.90;;;;;;5060156;28;19928;-63
2022/09/20 05:50:28;;;;;;;;;;;11.50;99.90;;;;;;5059410;28;21590;-63
2022/09/20 05:53:12;;;;;;;;;;;11.50;99.90;;;;;;5061319;28;20083;-63
2022/09/20 05:55:37;;;;;;;;;;;11.40;99.90;;;;;;5062345;28;20225;-63
2022/09/20 05:58:09;;;;;;;;;;;11.40;99.90;;;;;;5059801;28;19948;-63
2022/09/20 06:00:39;;;;;;;;;;;11.40;99.90;;;;;;5056338;28;19936;-63
2022/09/20 06:03:29;;;;;;;;;;;11.30;99.90;;;;;;5054691;28;19920;-62
2022/09/20 06:06:08;;;;;;;;;;;11.30;99.90;;;;;;5045910;28;19916;-62
2022/09/20 06:08:33;;;;;;;;;;;11.30;99.90;;;;;;5058901;28;19912;-63
2022/09/20 06:11:06;;;;;;;;;;;11.30;99.90;;;;;;5057935;28;20385;-63
2022/09/20 06:13:46;;;;;;;;;;;11.30;99.90;;;;;;5062661;28;19926;-63
2022/09/20 06:16:26;;;;;;;;;;;11.50;99.90;;;;;;5055886;28;19928;-63
2022/09/20 06:19:03;;;;;;;;;;;11.40;99.90;;;;;;5056010;28;19917;-63
2022/09/20 06:21:47;;;;;;;;;;;11.50;99.90;;;;;;5055123;28;20420;-63
2022/09/20 06:24:24;;;;;;;;;;;11.60;99.90;;;;;;5044927;28;19919;-63
2022/09/20 06:26:51;;;;;;;;;;;11.70;99.90;;;;;;5064515;22;19932;-66
2022/09/20 06:29:18;;;;;;;;;;;11.70;99.90;;;;;;5052419;28;19931;-67
2022/09/20 06:31:44;;;;;;;;;;;11.70;99.90;;;;;;5060663;28;20012;-66
2022/09/20 06:34:12;;;;;;;;;;;11.70;99.90;;;;;;5060963;28;20254;-66
2022/09/20 06:42:15;;;;;;;;;;;11.70;99.90;;;;;;5060697;28;19932;-67
2022/09/20 06:44:42;;;;;;;;;;;11.80;99.90;;;;;;5060675;28;20366;-67
2022/09/20 06:47:11;;;;;;;;;;;11.80;99.90;;;;;;5045573;28;19948;-68
2022/09/20 06:49:38;;;;;;;;;;;11.90;99.90;;;;;;5059845;28;20003;-66
2022/09/20 06:52:09;;;;;;;;;;;12.10;99.90;;;;;;5055890;28;19913;-66
2022/09/20 06:54:36;;;;;;;;;;;12.20;99.90;;;;;;5062086;28;20370;-66
2022/09/20 06:57:03;;;;;;;;;;;12.40;99.90;;;;;;5066932;28;19916;-67
2022/09/20 06:59:28;;;;;;;;;;;12.50;99.90;;;;;;5061983;28;19916;-68
2022/09/20 07:01:54;;;;;;;;;;;12.70;99.90;;;;;;5060677;28;19913;-69
2022/09/20 07:04:22;;;;;;;;;;;12.80;99.90;;;;;;5062190;28;19966;-67
2022/09/20 07:06:47;;;;;;;;;;;12.90;99.90;;;;;;5061522;28;19927;-68
2022/09/20 07:09:13;;;;;;;;;;;13.00;99.90;;;;;;5065254;28;20027;-68
2022/09/20 07:11:38;;;;;;;;;;;13.20;99.90;;;;;;5046700;28;19909;-67
2022/09/20 07:14:06;;;;;;;;;;;13.50;99.90;;;;;;5065340;28;19913;-67
2022/09/20 07:16:32;;;;;;;;;;;13.60;99.90;;;;;;5065626;28;19958;-66
2022/09/20 07:18:58;;;;;;;;;;;13.80;99.90;;;;;;5070542;28;19967;-65
2022/09/20 07:21:24;;;;;;;;;;;14.00;99.90;;;;;;5074116;28;20338;-65
2022/09/20 07:23:50;;;;;;;;;;;14.10;99.90;;;;;;5053812;28;20012;-66
2022/09/20 07:26:23;;;;;;;;;;;14.10;99.90;;;;;;5054349;28;19963;-65
2022/09/20 07:28:48;;;;;;;;;;;14.20;99.90;;;;;;5072490;28;19946;-66
2022/09/20 07:31:15;;;;;;;;;;;14.30;99.90;;;;;;5069696;28;19953;-66
2022/09/20 07:33:40;;;;;;;;;;;14.30;99.90;;;;;;5069760;28;19920;-65
2022/09/20 07:36:06;;;;;;;;;;;14.40;99.90;;;;;;5068159;28;20658;-65
2022/09/20 07:38:32;;;;;;;;;;;14.50;99.90;;;;;;5070553;28;19995;-66
2022/09/20 07:40:59;;;;;;;;;;;14.40;99.90;;;;;;5069598;28;19920;-65
2022/09/20 07:43:25;;;;;;;;;;;14.40;99.90;;;;;;5062091;28;19919;-69
2022/09/20 07:45:54;;;;;;;;;;;14.50;99.90;;;;;;5067595;28;20035;-65
2022/09/20 07:48:24;;;;;;;;;;;14.60;99.90;;;;;;5067371;28;20332;-66
2022/09/20 07:50:54;;;;;;;;;;;14.60;99.90;;;;;;5065814;28;19912;-66
2022/09/20 07:53:20;;;;;;;;;;;14.70;99.90;;;;;;5064733;28;19916;-68
2022/09/20 07:56:15;;;;;;;;;;;14.80;99.90;;;;;;5073253;28;20014;-68
2022/09/20 07:58:41;;;;;;;;;;;14.90;99.90;;;;;;5051975;28;19920;-68
2022/09/20 08:01:08;;;;;;;;;;;14.90;99.90;;;;;;5072628;28;19954;-67
2022/09/20 08:03:34;;;;;;;;;;;14.80;99.90;;;;;;5067398;28;19929;-68
2022/09/20 08:06:00;;;;;;;;;;;14.90;99.90;;;;;;5069381;28;19997;-66
2022/09/20 08:08:27;;;;;;;;;;;15.10;99.90;;;;;;5064614;28;19960;-66
2022/09/20 08:11:00;;;;;;;;;;;15.20;99.90;;;;;;5067300;28;19956;-67
2022/09/20 08:13:26;;;;;;;;;;;15.30;99.90;;;;;;5067176;28;20426;-67
2022/09/20 08:15:59;;;;;;;;;;;15.40;99.90;;;;;;5067676;28;20014;-66
2022/09/20 08:18:26;;;;;;;;;;;15.40;99.90;;;;;;5044149;28;19979;-67
2022/09/20 08:20:52;;;;;;;;;;;15.50;99.90;;;;;;5069737;28;19934;-66
2022/09/20 08:23:17;;;;;;;;;;;15.50;99.90;;;;;;5070874;28;19912;-67
2022/09/20 08:25:43;;;;;;;;;;;15.50;99.90;;;;;;5069360;28;19908;-68
2022/09/20 08:28:09;;;;;;;;;;;15.60;99.90;;;;;;5070858;28;19916;-66
2022/09/20 08:30:35;;;;;;;;;;;15.60;99.90;;;;;;5072235;28;19913;-66
2022/09/20 08:33:02;;;;;;;;;;;15.70;99.90;;;;;;5052451;28;19920;-68
2022/09/20 08:35:28;;;;;;;;;;;15.80;99.90;;;;;;5061939;28;20019;-67
2022/09/20 08:37:54;;;;;;;;;;;15.90;99.90;;;;;;5072350;28;19999;-66
2022/09/20 08:40:22;;;;;;;;;;;15.90;99.90;;;;;;5068668;28;19917;-68
2022/09/20 08:42:48;;;;;;;;;;;15.80;99.90;;;;;;5067813;28;20123;-66
2022/09/20 08:45:16;;;;;;;;;;;15.70;99.90;;;;;;5072718;28;19915;-66
2022/09/20 08:48:04;;;;;;;;;;;15.70;99.90;;;;;;5054564;28;19917;-66
2022/09/20 08:50:30;;;;;;;;;;;15.70;99.90;;;;;;5065765;28;19970;-68
2022/09/20 08:52:56;;;;;;;;;;;15.80;99.90;;;;;;5071148;28;19944;-67
2022/09/20 08:55:23;;;;;;;;;;;16.00;99.90;;;;;;5071953;28;19924;-67
2022/09/20 08:57:53;;;;;;;;;;;16.40;99.90;;;;;;5068220;28;20352;-67
2022/09/20 09:00:20;;;;;;;;;;;16.70;99.90;;;;;;5064490;28;19912;-66
2022/09/20 09:02:46;;;;;;;;;;;17.10;99.90;;;;;;5067208;28;19912;-66
2022/09/20 09:05:25;;;;;;;;;;;17.50;99.90;;;;;;5062615;28;20300;-65
2022/09/20 09:07:50;;;;;;;;;;;17.80;99.90;;;;;;5060768;28;19990;-67
2022/09/20 09:10:16;;;;;;;;;;;18.10;99.90;;;;;;5063188;28;19928;-65
2022/09/20 09:12:45;;;;;;;;;;;18.50;99.90;;;;;;5059069;28;19919;-66
2022/09/20 09:15:21;;;;;;;;;;;18.70;99.90;;;;;;5044790;28;19946;-66
2022/09/20 09:17:47;;;;;;;;;;;18.60;99.90;;;;;;5064756;28;20007;-67
2022/09/20 09:20:12;;;;;;;;;;;18.60;99.90;;;;;;5063032;28;20003;-67
2022/09/20 09:22:43;;;;;;;;;;;18.50;99.90;;;;;;5068057;28;19965;-68
2022/09/20 09:25:17;;;;;;;;;;;18.40;99.90;;;;;;5066723;28;19912;-67
2022/09/20 09:27:52;;;;;;;;;;;18.40;99.90;;;;;;5064510;28;19916;-67
2022/09/20 09:30:22;;;;;;;;;;;18.40;99.90;;;;;;5063846;28;19919;-68
2022/09/20 09:32:48;;;;;;;;;;;18.30;99.90;;;;;;5069152;28;20378;-66
2022/09/20 09:35:24;;;;;;;;;;;18.40;99.90;;;;;;5063997;28;19916;-68
2022/09/20 09:37:57;;;;;;;;;;;18.50;99.90;;;;;;5064654;28;19932;-67
2022/09/20 09:40:23;;;;;;;;;;;18.60;99.90;;;;;;5070553;28;20008;-67
2022/09/20 09:42:50;;;;;;;;;;;18.70;99.90;;;;;;5064214;28;20346;-66
2022/09/20 09:45:37;;;;;;;;;;;18.70;99.90;;;;;;5069172;28;19916;-68
2022/09/20 09:48:16;;;;;;;;;;;18.80;99.90;;;;;;5068724;28;19999;-69
2022/09/20 09:50:41;;;;;;;;;;;18.80;99.90;;;;;;5067984;28;20343;-71
2022/09/20 09:53:12;;;;;;;;;;;18.80;99.90;;;;;;5067620;28;19989;-66
2022/09/20 09:55:43;;;;;;;;;;;18.80;99.90;;;;;;5057915;28;19969;-68
2022/09/20 09:58:20;;;;;;;;;;;18.80;99.90;;;;;;5045248;28;20011;-66
2022/09/20 10:00:46;;;;;;;;;;;18.80;99.90;;;;;;5044553;28;20010;-67
2022/09/20 10:03:24;;;;;;;;;;;18.50;99.90;;;;;;5067089;28;19924;-68
2022/09/20 10:06:00;;;;;;;;;;;18.60;99.90;;;;;;5068915;28;20799;-66
2022/09/20 10:08:34;;;;;;;;;;;18.80;99.90;;;;;;5068395;28;19966;-67
2022/09/20 10:11:09;;;;;;;;;;;18.90;99.90;;;;;;5065478;28;19999;-67
2022/09/20 10:13:43;;;;;;;;;;;19.00;99.90;;;;;;5042607;28;19920;-68
2022/09/20 10:16:21;;;;;;;;;;;19.00;99.90;;;;;;5064110;28;19963;-68
2022/09/20 10:18:54;;;;;;;;;;;19.10;99.90;;;;;;5070071;28;19917;-68
2022/09/20 10:21:43;;;;;;;;;;;19.30;95.90;;;;;;5068453;28;19975;-66
2022/09/20 10:24:15;;;;;;;;;;;19.60;91.30;;;;;;5067011;28;20364;-67
2022/09/20 10:26:42;;;;;;;;;;;19.60;80.40;;;;;;5065765;28;19920;-66
2022/09/20 10:29:26;;;;;;;;;;;19.70;76.20;;;;;;5072193;28;19935;-66
2022/09/20 10:32:03;;;;;;;;;;;19.90;74.90;;;;;;5073125;28;19932;-66
2022/09/20 10:34:38;;;;;;;;;;;19.90;78.10;;;;;;5073625;28;19916;-66
2022/09/20 10:37:09;;;;;;;;;;;19.90;76.50;;;;;;5072432;28;19916;-66
2022/09/20 10:39:36;;;;;;;;;;;19.80;74.90;;;;;;5069699;28;20039;-66
2022/09/20 10:45:07;;;;;;;;;;;20.10;71.40;;;;;;5072972;28;19920;-66
2022/09/20 10:47:38;;;;;;;;;;;20.30;69.60;;;;;;5070234;28;19920;-66
2022/09/20 10:50:16;;;;;;;;;;;20.20;68.90;;;;;;5069059;28;19912;-67
2022/09/20 10:52:44;;;;;;;;;;;20.30;70.10;;;;;;5069797;28;20026;-67
2022/09/20 10:55:24;;;;;;;;;;;20.20;68.50;;;;;;5080235;28;19939;-66
2022/09/20 10:57:54;;;;;;;;;;;20.20;69.60;;;;;;5062404;28;19924;-65
2022/09/20 11:00:21;;;;;;;;;;;19.90;70.90;;;;;;5068073;28;20003;-65
2022/09/20 11:02:55;;;;;;;;;;;19.90;70.70;;;;;;5069387;28;19924;-65
2022/09/20 11:05:30;;;;;;;;;;;19.80;72.00;;;;;;5062041;28;19913;-66
2022/09/20 11:08:02;;;;;;;;;;;19.80;70.30;;;;;;5070657;28;19962;-67
2022/09/20 11:10:49;;;;;;;;;;;19.90;70.50;;;;;;5070023;28;19995;-66
2022/09/20 11:13:33;;;;;;;;;;;19.80;69.60;;;;;;5068747;28;19921;-66
2022/09/20 11:16:02;;;;;;;;;;;19.80;69.10;;;;;;5068391;28;19970;-67
2022/09/20 11:18:37;;;;;;;;;;;19.90;68.60;;;;;;5072747;28;19974;-66
2022/09/20 11:21:10;;;;;;;;;;;19.90;67.60;;;;;;5061951;28;19913;-67
2022/09/20 11:23:39;;;;;;;;;;;19.80;67.20;;;;;;5071911;28;19950;-67
2022/09/20 11:26:10;;;;;;;;;;;19.90;64.60;;;;;;5065453;28;20250;-66
2022/09/20 11:28:41;;;;;;;;;;;20.00;65.60;;;;;;5072309;28;19926;-66
2022/09/20 11:31:13;;;;;;;;;;;20.10;62.60;;;;;;5066043;28;19912;-66
2022/09/20 11:33:38;;;;;;;;;;;20.10;62.20;;;;;;5063914;28;19919;-66
2022/09/20 11:36:07;;;;;;;;;;;19.80;63.60;;;;;;5061842;28;19916;-67
2022/09/20 11:38:35;;;;;;;;;;;19.70;63.00;;;;;;5059769;28;19963;-65
2022/09/20 11:41:01;;;;;;;;;;;19.90;63.80;;;;;;5066503;28;19913;-67
2022/09/20 11:43:29;;;;;;;;;;;19.90;63.00;;;;;;5069138;28;19965;-68
2022/09/20 11:45:57;;;;;;;;;;;19.90;63.30;;;;;;5062968;28;19935;-67
2022/09/20 11:48:24;;;;;;;;;;;19.80;61.50;;;;;;5062850;28;20039;-66
2022/09/20 11:51:03;;;;;;;;;;;19.60;58.70;;;;;;5058958;28;19928;-68
2022/09/20 11:53:41;;;;;;;;;;;19.70;59.00;;;;;;5067877;28;19913;-66
2022/09/20 11:56:27;;;;;;;;;;;19.60;59.20;;;;;;5069436;28;19917;-67
2022/09/20 11:58:54;;;;;;;;;;;19.70;59.40;;;;;;5061644;28;19924;-68
2022/09/20 12:01:25;;;;;;;;;;;19.80;60.00;;;;;;5052701;28;19978;-67
2022/09/20 12:03:52;;;;;;;;;;;19.70;61.70;;;;;;5065529;28;20380;-66
2022/09/20 12:06:20;;;;;;;;;;;19.60;62.20;;;;;;5068207;28;19916;-66
2022/09/20 12:08:48;;;;;;;;;;;19.40;62.90;;;;;;5069755;28;19912;-66
2022/09/20 12:11:15;;;;;;;;;;;19.40;63.10;;;;;;5064162;28;19921;-65
2022/09/20 12:13:41;;;;;;;;;;;19.40;63.10;;;;;;5060823;28;19912;-65
2022/09/20 12:16:33;;;;;;;;;;;19.50;63.40;;;;;;5063555;28;19961;-67
2022/09/20 12:19:00;;;;;;;;;;;19.50;60.90;;;;;;5069343;28;19933;-65
2022/09/20 12:21:27;;;;;;;;;;;19.50;60.60;;;;;;5066358;28;19978;-67
2022/09/20 12:23:52;;;;;;;;;;;19.20;63.10;;;;;;5045530;28;20831;-68
2022/09/20 12:26:17;;;;;;;;;;;19.30;63.60;;;;;;5069824;28;20027;-67
2022/09/20 12:28:48;;;;;;;;;;;19.50;61.70;;;;;;5068615;28;19912;-67
2022/09/20 12:31:17;;;;;;;;;;;19.60;60.80;;;;;;5063028;28;20155;-66
2022/09/20 12:34:00;;;;;;;;;;;19.60;60.40;;;;;;5061784;28;19913;-65
2022/09/20 12:36:31;;;;;;;;;;;19.70;60.20;;;;;;5063222;28;19916;-67
2022/09/20 12:38:59;;;;;;;;;;;20.10;59.10;;;;;;5064950;28;19971;-66
2022/09/20 12:41:25;;;;;;;;;;;20.10;59.70;;;;;;5065888;28;19944;-67
2022/09/20 12:43:56;;;;;;;;;;;20.00;58.60;;;;;;5068662;28;19965;-66
2022/09/20 12:46:28;;;;;;;;;;;19.80;58.50;;;;;;5065868;28;19999;-67
2022/09/20 12:52:49;;;;;;;;;;;19.80;59.00;;;;;;5067823;28;19920;-67
2022/09/20 12:54:50;;;;;;;;;;;20.30;59.20;;;;;;5059665;28;19966;-67
2022/09/20 12:57:18;;;;;;;;;;;20.60;58.30;;;;;;5063781;28;19960;-67
2022/09/20 12:59:54;;;;;;;;;;;20.80;58.70;;;;;;5070884;28;19948;-66
2022/09/20 13:02:39;;;;;;;;;;;21.00;58.60;;;;;;5062287;28;19912;-67
2022/09/20 13:05:25;;;;;;;;;;;21.10;57.20;;;;;;5061028;28;19966;-66
2022/09/20 13:07:59;;;;;;;;;;;21.10;56.60;;;;;;5065004;28;19912;-66
2022/09/20 13:10:29;;;;;;;;;;;21.20;57.40;;;;;;5069389;28;19919;-67
2022/09/20 13:12:57;;;;;;;;;;;21.20;54.10;;;;;;5057019;28;20453;-67
2022/09/20 13:15:23;;;;;;;;;;;21.40;54.30;;;;;;5063061;28;20298;-67
2022/09/20 13:17:51;;;;;;;;;;;21.50;51.80;;;;;;5063349;28;19923;-67
2022/09/20 13:20:19;;;;;;;;;;;21.50;52.30;;;;;;5067893;28;19960;-67
2022/09/20 13:22:46;;;;;;;;;;;21.10;54.10;;;;;;5059103;28;20176;-66
2022/09/20 13:25:19;;;;;;;;;;;21.20;54.80;;;;;;5070197;28;20758;-67
2022/09/20 13:28:03;;;;;;;;;;;21.50;53.90;;;;;;5063437;28;19917;-67
2022/09/20 13:30:32;;;;;;;;;;;21.70;54.10;;;;;;5060406;28;19947;-67
2022/09/20 13:33:36;;;;;;;;;;;21.70;53.70;;;;;;5066520;28;19912;-67
2022/09/20 13:36:02;;;;;;;;;;;21.90;54.10;;;;;;5002520;28;19922;-67
2022/09/20 13:38:30;;;;;;;;;;;22.10;53.70;;;;;;4999437;28;19945;-67
2022/09/20 13:41:14;;;;;;;;;;;22.40;53.10;;;;;;5042578;28;19913;-67
2022/09/20 13:43:45;;;;;;;;;;;22.50;52.70;;;;;;5058714;28;19916;-67
2022/09/20 13:46:12;;;;;;;;;;;22.40;52.30;;;;;;5058821;28;19913;-67
2022/09/20 13:48:38;;;;;;;;;;;22.40;51.50;;;;;;5067294;28;19912;-67
2022/09/20 13:51:14;;;;;;;;;;;22.30;52.30;;;;;;5072892;28;19923;-66
2022/09/20 13:53:39;;;;;;;;;;;22.20;52.40;;;;;;5057524;28;19955;-66
2022/09/20 13:56:09;;;;;;;;;;;22.20;52.10;;;;;;5064549;28;20307;-66
2022/09/20 13:58:36;;;;;;;;;;;22.20;52.40;;;;;;5064589;28;19985;-66
2022/09/20 14:01:03;;;;;;;;;;;22.10;53.00;;;;;;5066344;28;20425;-68
2022/09/20 14:03:31;;;;;;;;;;;22.10;53.40;;;;;;5064954;28;19920;-66
2022/09/20 14:06:01;;;;;;;;;;;22.00;53.10;;;;;;5068356;28;19920;-66
2022/09/20 14:08:29;;;;;;;;;;;22.10;52.30;;;;;;5071353;28;20429;-68
2022/09/20 14:11:02;;;;;;;;;;;22.20;52.40;;;;;;5063328;28;19908;-68
2022/09/20 14:13:31;;;;;;;;;;;22.20;53.00;;;;;;5066790;28;20424;-66
2022/09/20 14:15:57;;;;;;;;;;;22.20;52.80;;;;;;5072616;28;20302;-66
2022/09/20 14:18:23;;;;;;;;;;;22.30;53.50;;;;;;5070590;28;19921;-67
2022/09/20 14:20:49;;;;;;;;;;;22.10;53.60;;;;;;5074364;28;19916;-68
2022/09/20 14:23:21;;;;;;;;;;;22.00;53.40;;;;;;5071559;28;19919;-65
2022/09/20 14:26:25;;;;;;;;;;;22.10;53.40;;;;;;5072893;28;19924;-67
2022/09/20 14:28:51;;;;;;;;;;;21.90;53.20;;;;;;4968652;28;20327;-68
2022/09/20 14:31:20;;;;;;;;;;;21.60;54.20;;;;;;4970694;28;19957;-68
2022/09/20 14:33:48;;;;;;;;;;;21.60;54.50;;;;;;5022928;28;19916;-67
2022/09/20 14:36:15;;;;;;;;;;;21.40;54.40;;;;;;5072425;28;19921;-66
2022/09/20 14:38:45;;;;;;;;;;;21.50;54.70;;;;;;5067612;28;19916;-66
2022/09/20 14:41:12;;;;;;;;;;;21.50;53.80;;;;;;5058585;28;20351;-67
2022/09/20 14:43:38;;;;;;;;;;;21.50;53.90;;;;;;5075399;28;19945;-67
2022/09/20 14:46:05;;;;;;;;;;;21.20;56.30;;;;;;5069178;28;20010;-67
2022/09/20 14:48:32;;;;;;;;;;;21.00;56.70;;;;;;5075770;28;19919;-66
2022/09/20 14:51:24;;;;;;;;;;;20.80;58.30;;;;;;5074371;28;19913;-66
2022/09/20 14:53:51;;;;;;;;;;;20.70;60.10;;;;;;5075893;28;19916;-66
2022/09/20 14:56:36;;;;;;;;;;;20.70;59.50;;;;;;5047980;28;19928;-67
2022/09/20 14:59:18;;;;;;;;;;;20.50;59.60;;;;;;5073847;28;19949;-67